createdAt,value
2022-09-18T00:00:42.399Z,94.27
2022-09-18T00:01:42.490Z,96.31
2022-09-18T00:02:42.441Z,96.01
2022-09-18T00:03:42.394Z,95.50
2022-09-18T00:04:42.404Z,95.19
2022-09-18T00:05:42.346Z,94.68
2022-09-18T00:06:42.341Z,94.48
2022-09-18T00:07:42.328Z,95.70
2022-09-18T00:08:42.396Z,94.58
2022-09-18T00:09:42.299Z,95.29
2022-09-18T00:10:42.298Z,95.60
2022-09-18T00:11:42.399Z,96.21
2022-09-18T00:12:42.313Z,96.11
2022-09-18T00:13:42.277Z,95.29
2022-09-18T00:14:42.263Z,94.89
2022-09-18T00:15:42.298Z,96.21
2022-09-18T00:16:42.273Z,96.21
2022-09-18T00:17:42.224Z,96.21
2022-09-18T00:18:42.246Z,96.31
2022-09-18T00:19:42.193Z,95.19
2022-09-18T00:20:42.185Z,96.11
2022-09-18T00:21:42.170Z,96.11
2022-09-18T00:22:42.166Z,95.29
2022-09-18T00:23:42.176Z,95.60
2022-09-18T00:24:42.174Z,96.11
2022-09-18T00:25:42.134Z,96.31
2022-09-18T00:26:42.122Z,95.90
2022-09-18T00:27:42.213Z,95.85
2022-09-18T00:28:42.116Z,95.80
2022-09-18T00:29:42.083Z,96.11
2022-09-18T00:30:42.086Z,96.31
2022-09-18T00:31:42.140Z,96.26
2022-09-18T00:32:42.069Z,95.75
2022-09-18T00:33:42.052Z,95.34
2022-09-18T00:34:42.028Z,95.44
2022-09-18T00:35:42.020Z,96.26
2022-09-18T00:36:42.003Z,96.26
2022-09-18T00:37:42.001Z,95.89
2022-09-18T00:38:42.004Z,96.61
2022-09-18T00:39:42.001Z,96.61
2022-09-18T00:40:41.981Z,96.61
2022-09-18T00:41:41.976Z,96.20
2022-09-18T00:42:41.953Z,96.34
2022-09-18T00:43:42.060Z,96.14
2022-09-18T00:44:41.956Z,96.55
2022-09-18T00:45:41.938Z,96.96
2022-09-18T00:46:42.028Z,97.57
2022-09-18T00:47:41.899Z,97.41
2022-09-18T00:48:41.897Z,96.19
2022-09-18T00:49:41.859Z,96.19
2022-09-18T00:50:41.860Z,96.66
2022-09-18T00:51:41.837Z,97.16
2022-09-18T00:52:41.836Z,96.66
2022-09-18T00:53:41.833Z,97.16
2022-09-18T00:54:41.811Z,97.37
2022-09-18T00:55:41.802Z,97.37
2022-09-18T00:56:41.793Z,96.45
2022-09-18T00:57:41.771Z,97.27
2022-09-18T00:58:41.780Z,97.42
2022-09-18T00:59:41.873Z,96.41
2022-09-18T01:00:41.805Z,95.89
2022-09-18T01:01:41.771Z,95.28
2022-09-18T01:02:41.734Z,94.67
2022-09-18T01:03:41.714Z,94.36
2022-09-18T01:04:41.728Z,94.36
2022-09-18T01:05:41.732Z,93.91
2022-09-18T01:06:41.691Z,93.91
2022-09-18T01:07:41.669Z,94.82
2022-09-18T01:08:44.097Z,94.01
2022-09-18T01:09:41.669Z,94.21
2022-09-18T01:10:41.638Z,94.11
2022-09-18T01:11:41.657Z,94.21
2022-09-18T01:12:41.615Z,94.11
2022-09-18T01:13:41.614Z,93.50
2022-09-18T01:14:41.604Z,93.29
2022-09-18T01:15:41.783Z,93.19
2022-09-18T01:16:41.572Z,93.76
2022-09-18T01:17:41.586Z,94.07
2022-09-18T01:18:41.561Z,93.45
2022-09-18T01:19:41.578Z,93.70
2022-09-18T01:20:41.525Z,94.07
2022-09-18T01:21:41.535Z,94.27
2022-09-18T01:22:41.505Z,94.37
2022-09-18T01:23:41.497Z,94.89
2022-09-18T01:24:41.532Z,94.01
2022-09-18T01:25:41.468Z,94.82
2022-09-18T01:26:41.459Z,94.78
2022-09-18T01:27:41.449Z,95.03
2022-09-18T01:28:41.439Z,95.03
2022-09-18T01:29:41.480Z,95.44
2022-09-18T01:30:41.421Z,94.11
2022-09-18T01:31:41.552Z,94.32
2022-09-18T01:32:41.398Z,95.03
2022-09-18T01:33:41.388Z,94.01
2022-09-18T01:34:41.380Z,93.91
2022-09-18T01:35:42.446Z,95.34
2022-09-18T01:36:41.354Z,95.23
2022-09-18T01:37:41.341Z,94.42
2022-09-18T01:38:41.328Z,93.70
2022-09-18T01:39:41.473Z,93.80
2022-09-18T01:40:41.357Z,93.40
2022-09-18T01:41:41.331Z,94.42
2022-09-18T01:42:41.289Z,94.73
2022-09-18T01:43:41.312Z,94.32
2022-09-18T01:44:41.609Z,94.52
2022-09-18T01:45:41.268Z,94.52
2022-09-18T01:46:41.290Z,94.73
2022-09-18T01:47:41.357Z,93.70
2022-09-18T01:48:41.219Z,93.91
2022-09-18T01:49:41.243Z,94.32
2022-09-18T01:50:41.209Z,96.05
2022-09-18T01:51:41.223Z,96.26
2022-09-18T01:52:41.193Z,96.62
2022-09-18T01:53:41.165Z,95.95
2022-09-18T01:54:41.202Z,94.73
2022-09-18T01:55:41.192Z,95.64
2022-09-18T01:56:41.139Z,94.62
2022-09-18T01:57:41.119Z,95.54
2022-09-18T01:58:41.136Z,95.34
2022-09-18T01:59:41.120Z,95.44
2022-09-18T02:00:41.095Z,95.13
2022-09-18T02:01:41.225Z,94.82
2022-09-18T02:02:41.134Z,95.34
2022-09-18T02:03:41.180Z,95.44
2022-09-18T02:04:41.061Z,94.82
2022-09-18T02:05:41.031Z,95.38
2022-09-18T02:06:41.026Z,95.34
2022-09-18T02:07:41.031Z,94.93
2022-09-18T02:08:40.996Z,95.44
2022-09-18T02:09:41.018Z,95.95
2022-09-18T02:10:40.986Z,96.15
2022-09-18T02:11:40.969Z,96.15
2022-09-18T02:12:40.986Z,96.15
2022-09-18T02:13:40.952Z,96.20
2022-09-18T02:14:40.961Z,96.71
2022-09-18T02:15:40.982Z,97.12
2022-09-18T02:16:40.937Z,97.53
2022-09-18T02:17:40.909Z,96.41
2022-09-18T02:18:40.897Z,96.41
2022-09-18T02:19:41.016Z,95.79
2022-09-18T02:20:40.881Z,96.81
2022-09-18T02:21:40.889Z,97.53
2022-09-18T02:22:40.867Z,97.37
2022-09-18T02:23:40.855Z,96.55
2022-09-18T02:24:40.880Z,96.55
2022-09-18T02:25:40.834Z,97.37
2022-09-18T02:26:40.801Z,97.57
2022-09-18T02:27:40.806Z,97.37
2022-09-18T02:28:40.789Z,97.78
2022-09-18T02:29:40.819Z,97.57
2022-09-18T02:30:40.796Z,98.54
2022-09-18T02:31:40.823Z,97.92
2022-09-18T02:32:40.743Z,97.62
2022-09-18T02:33:40.732Z,97.62
2022-09-18T02:34:40.720Z,97.82
2022-09-18T02:35:40.820Z,97.92
2022-09-18T02:36:40.744Z,98.54
2022-09-18T02:37:40.685Z,98.54
2022-09-18T02:38:40.724Z,98.95
2022-09-18T02:39:40.722Z,99.05
2022-09-18T02:40:40.668Z,99.05
2022-09-18T02:41:40.637Z,99.15
2022-09-18T02:42:40.650Z,99.36
2022-09-18T02:43:40.633Z,99.77
2022-09-18T02:44:40.625Z,99.87
2022-09-18T02:45:40.597Z,99.99
2022-09-18T02:46:40.715Z,99.77
2022-09-18T02:47:40.623Z,99.77
2022-09-18T02:48:40.596Z,99.66
2022-09-18T02:49:40.589Z,98.95
2022-09-18T02:50:40.598Z,99.15
2022-09-18T02:51:40.647Z,98.74
2022-09-18T02:52:40.616Z,98.95
2022-09-18T02:53:40.591Z,98.65
2022-09-18T02:54:40.596Z,99.05
2022-09-18T02:55:40.484Z,98.74
2022-09-18T02:56:40.478Z,98.44
2022-09-18T02:57:40.469Z,98.03
2022-09-18T02:58:40.479Z,97.98
2022-09-18T02:59:40.612Z,97.37
2022-09-18T03:00:40.481Z,97.78
2022-09-18T03:01:40.596Z,97.27
2022-09-18T03:02:40.516Z,97.37
2022-09-18T03:03:40.404Z,97.27
2022-09-18T03:04:40.451Z,96.66
2022-09-18T03:05:40.382Z,96.66
2022-09-18T03:06:40.367Z,96.75
2022-09-18T03:07:40.557Z,96.66
2022-09-18T03:08:40.408Z,96.45
2022-09-18T03:09:40.378Z,96.25
2022-09-18T03:10:40.369Z,96.55
2022-09-18T03:11:40.363Z,96.45
2022-09-18T03:12:40.321Z,96.45
2022-09-18T03:13:40.293Z,96.55
2022-09-18T03:14:40.292Z,96.20
2022-09-18T03:15:40.268Z,96.75
2022-09-18T03:16:40.265Z,96.25
2022-09-18T03:17:40.268Z,96.00
2022-09-18T03:18:40.285Z,96.34
2022-09-18T03:19:40.226Z,96.66
2022-09-18T03:20:40.237Z,96.04
2022-09-18T03:21:40.219Z,95.94
2022-09-18T03:22:40.212Z,95.38
2022-09-18T03:23:45.337Z,95.07
2022-09-18T03:24:41.174Z,95.59
2022-09-18T03:25:40.174Z,94.97
2022-09-18T03:26:40.192Z,94.77
2022-09-18T03:27:40.148Z,95.28
2022-09-18T03:28:40.181Z,94.36
2022-09-18T03:29:40.131Z,94.36
2022-09-18T03:30:40.111Z,93.85
2022-09-18T03:31:40.185Z,93.95
2022-09-18T03:32:40.129Z,94.06
2022-09-18T03:33:40.080Z,93.74
2022-09-18T03:34:40.092Z,93.95
2022-09-18T03:35:40.060Z,94.97
2022-09-18T03:36:40.070Z,94.46
2022-09-18T03:37:40.031Z,95.69
2022-09-18T03:38:40.053Z,94.67
2022-09-18T03:39:40.148Z,94.87
2022-09-18T03:40:42.126Z,94.46
2022-09-18T03:41:40.994Z,94.06
2022-09-18T03:42:40.037Z,94.26
2022-09-18T03:43:39.970Z,94.06
2022-09-18T03:44:39.972Z,94.46
2022-09-18T03:45:39.949Z,94.15
2022-09-18T03:46:40.158Z,95.28
2022-09-18T03:47:39.919Z,94.73
2022-09-18T03:48:39.930Z,94.97
2022-09-18T03:49:39.926Z,95.28
2022-09-18T03:50:39.889Z,95.59
2022-09-18T03:51:39.898Z,95.38
2022-09-18T03:52:39.873Z,96.00
2022-09-18T03:53:39.889Z,96.20
2022-09-18T03:54:39.858Z,96.61
2022-09-18T03:55:39.971Z,96.20
2022-09-18T03:56:39.848Z,96.30
2022-09-18T03:57:39.831Z,96.41
2022-09-18T03:58:39.835Z,96.75
2022-09-18T03:59:39.826Z,97.02
2022-09-18T04:00:39.780Z,97.22
2022-09-18T04:01:39.811Z,97.12
2022-09-18T04:02:39.824Z,96.51
2022-09-18T04:03:39.751Z,96.00
2022-09-18T04:04:39.747Z,95.94
2022-09-18T04:05:39.754Z,96.55
2022-09-18T04:06:39.708Z,96.20
2022-09-18T04:07:39.713Z,95.53
2022-09-18T04:08:39.699Z,95.07
2022-09-18T04:09:39.718Z,94.67
2022-09-18T04:10:39.700Z,95.48
2022-09-18T04:11:39.782Z,96.20
2022-09-18T04:12:39.647Z,95.69
2022-09-18T04:13:39.648Z,95.38
2022-09-18T04:14:39.673Z,96.71
2022-09-18T04:15:39.615Z,95.38
2022-09-18T04:16:39.607Z,96.00
2022-09-18T04:17:39.646Z,96.20
2022-09-18T04:18:39.581Z,96.51
2022-09-18T04:19:39.611Z,95.48
2022-09-18T04:20:39.586Z,96.20
2022-09-18T04:21:39.553Z,96.10
2022-09-18T04:22:39.537Z,96.41
2022-09-18T04:23:39.538Z,96.41
2022-09-18T04:24:39.549Z,96.30
2022-09-18T04:25:39.527Z,95.59
2022-09-18T04:26:39.495Z,95.48
2022-09-18T04:27:39.602Z,96.41
2022-09-18T04:28:39.469Z,95.43
2022-09-18T04:29:39.479Z,96.25
2022-09-18T04:30:39.453Z,96.66
2022-09-18T04:31:39.471Z,96.20
2022-09-18T04:32:39.429Z,95.12
2022-09-18T04:33:39.429Z,95.32
2022-09-18T04:34:39.446Z,95.63
2022-09-18T04:35:39.398Z,95.43
2022-09-18T04:36:39.393Z,95.43
2022-09-18T04:37:39.397Z,95.84
2022-09-18T04:38:39.368Z,96.34
2022-09-18T04:39:39.369Z,96.66
2022-09-18T04:40:39.435Z,97.27
2022-09-18T04:41:39.336Z,96.55
2022-09-18T04:42:39.326Z,96.55
2022-09-18T04:43:39.439Z,96.45
2022-09-18T04:44:39.312Z,96.55
2022-09-18T04:45:39.305Z,95.73
2022-09-18T04:46:39.317Z,95.73
2022-09-18T04:47:39.284Z,95.53
2022-09-18T04:48:39.261Z,95.94
2022-09-18T04:49:39.288Z,96.25
2022-09-18T04:50:39.271Z,96.66
2022-09-18T04:51:39.270Z,97.37
2022-09-18T04:52:39.245Z,97.16
2022-09-18T04:53:39.217Z,97.16
2022-09-18T04:54:39.217Z,96.45
2022-09-18T04:55:39.202Z,96.04
2022-09-18T04:56:39.176Z,96.25
2022-09-18T04:57:39.206Z,96.25
2022-09-18T04:58:39.145Z,96.34
2022-09-18T04:59:39.270Z,95.43
2022-09-18T05:00:39.187Z,95.53
2022-09-18T05:01:39.152Z,95.32
2022-09-18T05:02:39.109Z,96.75
2022-09-18T05:03:39.133Z,96.08
2022-09-18T05:04:39.148Z,97.16
2022-09-18T05:05:39.081Z,96.29
2022-09-18T05:06:39.054Z,96.34
2022-09-18T05:07:39.049Z,96.96
2022-09-18T05:08:39.055Z,97.27
2022-09-18T05:09:39.071Z,96.86
2022-09-18T05:10:39.016Z,96.86
2022-09-18T05:11:39.011Z,96.45
2022-09-18T05:12:39.037Z,97.06
2022-09-18T05:13:39.037Z,96.34
2022-09-18T05:14:38.998Z,96.66
2022-09-18T05:15:39.081Z,96.14
2022-09-18T05:16:39.089Z,95.32
2022-09-18T05:17:38.982Z,95.43
2022-09-18T05:18:38.946Z,95.32
2022-09-18T05:19:38.932Z,95.57
2022-09-18T05:20:38.941Z,95.43
2022-09-18T05:21:38.895Z,95.63
2022-09-18T05:22:38.881Z,95.32
2022-09-18T05:23:38.901Z,95.32
2022-09-18T05:24:38.894Z,96.25
2022-09-18T05:25:38.860Z,97.37
2022-09-18T05:26:38.881Z,96.66
2022-09-18T05:27:38.863Z,96.14
2022-09-18T05:28:38.845Z,96.55
2022-09-18T05:29:38.874Z,96.45
2022-09-18T05:30:38.846Z,96.75
2022-09-18T05:31:38.997Z,95.02
2022-09-18T05:32:38.791Z,96.14
2022-09-18T05:33:38.806Z,96.34
2022-09-18T05:34:38.798Z,95.43
2022-09-18T05:35:38.752Z,96.14
2022-09-18T05:36:38.746Z,96.04
2022-09-18T05:37:38.741Z,96.14
2022-09-18T05:38:38.739Z,95.32
2022-09-18T05:39:38.732Z,95.32
2022-09-18T05:40:38.739Z,96.25
2022-09-18T05:41:38.704Z,96.45
2022-09-18T05:42:38.688Z,96.75
2022-09-18T05:43:38.659Z,96.66
2022-09-18T05:44:38.715Z,95.43
2022-09-18T05:45:38.632Z,96.55
2022-09-18T05:46:38.758Z,95.84
2022-09-18T05:47:38.742Z,95.43
2022-09-18T05:48:38.612Z,96.14
2022-09-18T05:49:38.603Z,95.12
2022-09-18T05:50:38.581Z,96.20
2022-09-18T05:51:38.593Z,96.14
2022-09-18T05:52:38.634Z,96.30
2022-09-18T05:53:38.582Z,95.32
2022-09-18T05:54:38.555Z,95.07
2022-09-18T05:55:38.598Z,94.51
2022-09-18T05:56:38.559Z,95.22
2022-09-18T05:57:38.499Z,94.77
2022-09-18T05:58:38.499Z,95.07
2022-09-18T05:59:38.545Z,96.00
2022-09-18T06:00:38.484Z,96.30
2022-09-18T06:01:38.539Z,97.33
2022-09-18T06:02:38.575Z,96.51
2022-09-18T06:03:38.685Z,96.71
2022-09-18T06:04:38.426Z,96.61
2022-09-18T06:05:38.417Z,96.30
2022-09-18T06:06:38.441Z,95.48
2022-09-18T06:07:38.432Z,95.59
2022-09-18T06:08:38.419Z,95.38
2022-09-18T06:09:38.422Z,95.48
2022-09-18T06:10:38.409Z,96.51
2022-09-18T06:11:38.382Z,96.61
2022-09-18T06:12:38.342Z,96.81
2022-09-18T06:13:38.359Z,95.48
2022-09-18T06:14:38.388Z,95.38
2022-09-18T06:15:38.325Z,95.59
2022-09-18T06:16:42.156Z,95.48
2022-09-18T06:17:38.362Z,94.77
2022-09-18T06:18:38.286Z,95.07
2022-09-18T06:19:38.396Z,94.97
2022-09-18T06:20:38.342Z,94.46
2022-09-18T06:21:38.243Z,94.77
2022-09-18T06:22:38.248Z,95.34
2022-09-18T06:23:38.220Z,94.26
2022-09-18T06:24:38.290Z,95.23
2022-09-18T06:25:38.240Z,94.01
2022-09-18T06:26:38.217Z,95.03
2022-09-18T06:27:38.175Z,94.21
2022-09-18T06:28:38.168Z,93.50
2022-09-18T06:29:38.181Z,93.29
2022-09-18T06:30:38.235Z,93.50
2022-09-18T06:31:38.237Z,94.68
2022-09-18T06:32:38.136Z,94.37
2022-09-18T06:33:38.134Z,92.94
2022-09-18T06:34:38.931Z,93.05
2022-09-18T06:35:38.204Z,92.84
2022-09-18T06:36:38.103Z,94.07
2022-09-18T06:37:38.066Z,93.45
2022-09-18T06:38:38.086Z,93.76
2022-09-18T06:39:38.084Z,93.25
2022-09-18T06:40:38.124Z,93.10
2022-09-18T06:41:38.074Z,92.84
2022-09-18T06:42:40.641Z,94.17
2022-09-18T06:43:38.005Z,93.51
2022-09-18T06:44:37.992Z,93.25
2022-09-18T06:45:38.046Z,92.69
2022-09-18T06:46:38.108Z,92.80
2022-09-18T06:47:37.967Z,91.67
2022-09-18T06:48:37.941Z,91.67
2022-09-18T06:49:37.969Z,91.67
2022-09-18T06:50:37.958Z,91.47
2022-09-18T06:51:38.037Z,92.08
2022-09-18T06:52:37.909Z,91.12
2022-09-18T06:53:38.014Z,91.63
2022-09-18T06:54:38.023Z,91.94
2022-09-18T06:55:37.884Z,91.43
2022-09-18T06:56:37.895Z,91.33
2022-09-18T06:57:37.880Z,90.81
2022-09-18T06:58:37.857Z,90.81
2022-09-18T06:59:37.905Z,90.92
2022-09-18T07:00:37.853Z,89.90
2022-09-18T07:01:37.936Z,89.55
2022-09-18T07:02:37.871Z,89.28
2022-09-18T07:03:37.842Z,90.00
2022-09-18T07:04:37.776Z,89.14
2022-09-18T07:05:37.813Z,90.88
2022-09-18T07:06:38.065Z,91.79
2022-09-18T07:07:37.884Z,89.51
2022-09-18T07:08:37.778Z,90.77
2022-09-18T07:09:37.815Z,90.77
2022-09-18T07:10:37.766Z,90.63
2022-09-18T07:11:37.722Z,90.83
2022-09-18T07:12:37.698Z,90.53
2022-09-18T07:13:37.680Z,89.30
2022-09-18T07:14:37.685Z,89.30
2022-09-18T07:15:37.667Z,89.92
2022-09-18T07:16:37.691Z,91.14
2022-09-18T07:17:37.662Z,90.22
2022-09-18T07:18:37.636Z,90.32
2022-09-18T07:19:37.633Z,90.42
2022-09-18T07:20:38.275Z,90.53
2022-09-18T07:21:37.590Z,90.63
2022-09-18T07:22:37.616Z,90.18
2022-09-18T07:23:37.702Z,89.71
2022-09-18T07:24:37.557Z,89.67
2022-09-18T07:25:37.572Z,89.10
2022-09-18T07:26:37.621Z,89.87
2022-09-18T07:27:37.518Z,89.77
2022-09-18T07:28:37.598Z,90.89
2022-09-18T07:29:37.522Z,88.69
2022-09-18T07:30:37.522Z,88.65
2022-09-18T07:31:37.607Z,88.04
2022-09-18T07:32:37.468Z,88.65
2022-09-18T07:33:37.490Z,87.32
2022-09-18T07:34:37.505Z,88.14
2022-09-18T07:35:37.439Z,88.65
2022-09-18T07:36:37.443Z,89.26
2022-09-18T07:37:37.435Z,89.67
2022-09-18T07:38:37.437Z,88.61
2022-09-18T07:39:37.537Z,89.42
2022-09-18T07:40:38.066Z,89.53
2022-09-18T07:41:37.365Z,88.10
2022-09-18T07:42:37.416Z,88.10
2022-09-18T07:43:37.363Z,86.77
2022-09-18T07:44:37.366Z,88.31
2022-09-18T07:45:37.392Z,86.68
2022-09-18T07:46:37.397Z,86.71
2022-09-18T07:47:37.301Z,85.60
2022-09-18T07:48:37.295Z,85.49
2022-09-18T07:49:37.309Z,86.21
2022-09-18T07:50:37.288Z,85.80
2022-09-18T07:51:37.301Z,85.90
2022-09-18T07:52:37.258Z,87.18
2022-09-18T07:53:37.261Z,88.40
2022-09-18T07:54:37.272Z,86.57
2022-09-18T07:55:37.364Z,85.69
2022-09-18T07:56:37.211Z,85.14
2022-09-18T07:57:37.215Z,85.75
2022-09-18T07:58:37.211Z,85.86
2022-09-18T07:59:37.197Z,85.86
2022-09-18T08:00:37.180Z,85.86
2022-09-18T08:01:37.249Z,85.05
2022-09-18T08:02:37.337Z,84.43
2022-09-18T08:03:41.258Z,84.64
2022-09-18T08:04:37.639Z,86.27
2022-09-18T08:05:37.128Z,86.22
2022-09-18T08:06:37.093Z,85.61
2022-09-18T08:07:37.179Z,85.14
2022-09-18T08:08:37.070Z,85.35
2022-09-18T08:09:37.091Z,86.63
2022-09-18T08:10:37.116Z,84.90
2022-09-18T08:11:37.154Z,84.50
2022-09-18T08:12:37.055Z,83.68
2022-09-18T08:13:37.099Z,82.76
2022-09-18T08:14:37.072Z,84.90
2022-09-18T08:15:36.999Z,84.29
2022-09-18T08:16:37.041Z,84.35
2022-09-18T08:17:37.010Z,83.84
2022-09-18T08:18:36.995Z,83.44
2022-09-18T08:19:36.988Z,84.05
2022-09-18T08:20:36.946Z,85.37
2022-09-18T08:21:36.960Z,84.52
2022-09-18T08:22:36.936Z,83.95
2022-09-18T08:23:36.901Z,84.31
2022-09-18T08:24:36.918Z,83.91
2022-09-18T08:25:36.882Z,83.70
2022-09-18T08:26:36.874Z,83.70
2022-09-18T08:27:37.011Z,83.91
2022-09-18T08:28:36.854Z,83.81
2022-09-18T08:29:36.856Z,83.50
2022-09-18T08:30:36.860Z,82.48
2022-09-18T08:31:36.983Z,81.98
2022-09-18T08:32:36.810Z,83.56
2022-09-18T08:33:36.813Z,81.63
2022-09-18T08:34:36.823Z,82.07
2022-09-18T08:35:36.775Z,81.77
2022-09-18T08:36:36.782Z,82.45
2022-09-18T08:37:36.762Z,84.28
2022-09-18T08:38:36.754Z,82.89
2022-09-18T08:39:36.744Z,82.59
2022-09-18T08:40:36.852Z,82.54
2022-09-18T08:41:36.704Z,85.09
2022-09-18T08:42:36.701Z,83.76
2022-09-18T08:43:36.801Z,84.13
2022-09-18T08:44:36.711Z,82.61
2022-09-18T08:45:36.665Z,82.61
2022-09-18T08:46:36.776Z,81.49
2022-09-18T08:47:36.648Z,81.70
2022-09-18T08:48:36.632Z,82.00
2022-09-18T08:49:36.636Z,81.90
2022-09-18T08:50:38.766Z,82.00
2022-09-18T08:51:36.602Z,81.79
2022-09-18T08:52:36.584Z,81.90
2022-09-18T08:53:36.593Z,83.42
2022-09-18T08:54:36.621Z,83.56
2022-09-18T08:55:36.585Z,83.53
2022-09-18T08:56:36.545Z,83.32
2022-09-18T08:57:36.531Z,83.53
2022-09-18T08:58:36.521Z,84.44
2022-09-18T08:59:36.661Z,82.31
2022-09-18T09:00:36.613Z,81.53
2022-09-18T09:01:36.503Z,83.67
2022-09-18T09:02:36.561Z,82.34
2022-09-18T09:03:36.503Z,82.68
2022-09-18T09:04:36.493Z,83.50
2022-09-18T09:05:36.465Z,83.60
2022-09-18T09:06:36.449Z,82.45
2022-09-18T09:07:36.426Z,84.42
2022-09-18T09:08:36.411Z,84.42
2022-09-18T09:09:36.438Z,83.67
2022-09-18T09:10:36.418Z,84.82
2022-09-18T09:11:36.373Z,84.31
2022-09-18T09:12:36.369Z,85.90
2022-09-18T09:13:36.377Z,83.97
2022-09-18T09:14:55.992Z,83.56
2022-09-18T09:15:37.504Z,84.58
2022-09-18T09:16:36.354Z,83.46
2022-09-18T09:17:36.366Z,84.68
2022-09-18T09:18:36.313Z,84.28
2022-09-18T09:19:36.317Z,84.64
2022-09-18T09:20:36.302Z,84.23
2022-09-18T09:21:36.274Z,85.66
2022-09-18T09:22:36.285Z,83.73
2022-09-18T09:23:36.260Z,83.46
2022-09-18T09:24:36.269Z,83.93
2022-09-18T09:25:36.248Z,83.42
2022-09-18T09:26:36.289Z,81.59
2022-09-18T09:27:36.201Z,83.83
2022-09-18T09:28:36.207Z,82.00
2022-09-18T09:29:36.208Z,83.42
2022-09-18T09:30:36.173Z,81.79
2022-09-18T09:31:36.370Z,82.61
2022-09-18T09:32:36.198Z,82.20
2022-09-18T09:33:36.130Z,83.48
2022-09-18T09:34:36.142Z,83.69
2022-09-18T09:35:36.108Z,83.59
2022-09-18T09:36:36.141Z,82.37
2022-09-18T09:37:36.088Z,82.06
2022-09-18T09:38:36.116Z,83.24
2022-09-18T09:39:36.088Z,82.23
2022-09-18T09:40:36.148Z,80.10
2022-09-18T09:41:36.049Z,80.06
2022-09-18T09:42:36.115Z,81.99
2022-09-18T09:43:36.062Z,81.85
2022-09-18T09:44:36.027Z,81.81
2022-09-18T09:45:36.037Z,80.90
2022-09-18T09:46:36.044Z,77.21
2022-09-18T09:47:36.130Z,78.12
2022-09-18T09:48:36.021Z,78.28
2022-09-18T09:49:36.002Z,77.78
2022-09-18T09:50:35.991Z,76.63
2022-09-18T09:51:35.985Z,77.95
2022-09-18T09:52:35.938Z,77.14
2022-09-18T09:53:35.919Z,75.82
2022-09-18T09:54:36.105Z,77.91
2022-09-18T09:55:35.951Z,75.28
2022-09-18T09:56:35.882Z,75.34
2022-09-18T09:57:35.897Z,74.03
2022-09-18T09:58:35.870Z,72.48
2022-09-18T09:59:35.869Z,75.88
2022-09-18T10:00:35.902Z,75.13
2022-09-18T10:01:35.963Z,73.32
2022-09-18T10:02:35.869Z,72.38
2022-09-18T10:03:35.922Z,71.97
2022-09-18T10:04:35.840Z,70.39
2022-09-18T10:05:35.788Z,72.38
2022-09-18T10:06:35.798Z,74.05
2022-09-18T10:07:35.792Z,70.36
2022-09-18T10:08:35.759Z,69.96
2022-09-18T10:09:35.781Z,67.74
2022-09-18T10:10:35.723Z,68.62
2022-09-18T10:11:35.723Z,67.34
2022-09-18T10:12:35.700Z,70.23
2022-09-18T10:13:35.696Z,67.44
2022-09-18T10:14:35.714Z,65.09
2022-09-18T10:15:35.681Z,67.71
2022-09-18T10:16:36.063Z,65.42
2022-09-18T10:17:35.704Z,64.92
2022-09-18T10:18:38.827Z,63.62
2022-09-18T10:19:36.647Z,65.39
2022-09-18T10:20:35.739Z,68.58
2022-09-18T10:21:35.603Z,64.95
2022-09-18T10:22:35.608Z,68.28
2022-09-18T10:23:35.619Z,65.83
2022-09-18T10:24:35.613Z,67.54
2022-09-18T10:25:35.628Z,63.75
2022-09-18T10:26:35.549Z,68.38
2022-09-18T10:27:38.643Z,67.68
2022-09-18T10:28:36.346Z,67.80
2022-09-18T10:29:36.199Z,64.31
2022-09-18T10:30:35.537Z,69.45
2022-09-18T10:31:35.637Z,68.54
2022-09-18T10:32:35.511Z,62.83
2022-09-18T10:33:35.498Z,67.87
2022-09-18T10:34:35.523Z,67.77
2022-09-18T10:35:35.718Z,68.68
2022-09-18T10:36:36.328Z,67.67
2022-09-18T10:37:38.276Z,70.76
2022-09-18T10:38:35.420Z,70.36
2022-09-18T10:39:35.467Z,67.84
2022-09-18T10:40:35.468Z,66.16
2022-09-18T10:41:35.401Z,67.80
2022-09-18T10:42:35.435Z,66.59
2022-09-18T10:43:35.445Z,70.62
2022-09-18T10:44:35.469Z,69.45
2022-09-18T10:45:35.346Z,68.64
2022-09-18T10:46:36.201Z,73.49
2022-09-18T10:47:35.318Z,71.13
2022-09-18T10:48:35.355Z,72.34
2022-09-18T10:49:35.320Z,69.68
2022-09-18T10:50:35.311Z,68.04
2022-09-18T10:51:35.408Z,65.76
2022-09-18T10:52:35.286Z,70.36
2022-09-18T10:53:35.408Z,68.85
2022-09-18T10:54:36.298Z,65.67
2022-09-18T10:55:36.061Z,61.93
2022-09-18T10:56:35.244Z,63.84
2022-09-18T10:57:35.214Z,61.64
2022-09-18T10:58:35.630Z,61.90
2022-09-18T10:59:35.231Z,62.10
2022-09-18T11:00:35.299Z,62.96
2022-09-18T11:01:35.266Z,62.79
2022-09-18T11:02:35.302Z,64.00
2022-09-18T11:03:36.032Z,63.22
2022-09-18T11:04:35.159Z,64.03
2022-09-18T11:05:35.125Z,68.02
2022-09-18T11:06:35.132Z,66.03
2022-09-18T11:07:35.229Z,65.16
2022-09-18T11:08:35.128Z,61.94
2022-09-18T11:09:35.095Z,66.10
2022-09-18T11:10:35.088Z,66.74
2022-09-18T11:11:35.060Z,67.61
2022-09-18T11:12:36.554Z,68.75
2022-09-18T11:13:35.044Z,66.34
2022-09-18T11:14:35.084Z,67.47
2022-09-18T11:15:35.014Z,68.45
2022-09-18T11:16:35.134Z,67.74
2022-09-18T11:17:35.106Z,66.07
2022-09-18T11:18:35.186Z,63.59
2022-09-18T11:19:34.999Z,67.44
2022-09-18T11:20:35.194Z,65.69
2022-09-18T11:21:34.965Z,63.87
2022-09-18T11:22:34.947Z,69.79
2022-09-18T11:23:35.050Z,68.48
2022-09-18T11:24:34.949Z,69.85
2022-09-18T11:25:34.899Z,72.27
2022-09-18T11:26:34.918Z,68.62
2022-09-18T11:27:35.591Z,63.11
2022-09-18T11:28:34.872Z,62.24
2022-09-18T11:29:35.595Z,65.39
2022-09-18T11:30:35.684Z,62.65
2022-09-18T11:31:34.899Z,61.35
2022-09-18T11:32:34.896Z,60.59
2022-09-18T11:33:34.822Z,58.59
2022-09-18T11:34:34.845Z,65.56
2022-09-18T11:35:34.805Z,61.89
2022-09-18T11:36:34.835Z,60.15
2022-09-18T11:37:34.797Z,61.25
2022-09-18T11:38:35.227Z,60.32
2022-09-18T11:39:35.718Z,61.19
2022-09-18T11:40:34.783Z,59.36
2022-09-18T11:41:34.723Z,61.46
2022-09-18T11:42:34.712Z,63.69
2022-09-18T11:43:34.711Z,61.19
2022-09-18T11:44:34.720Z,63.45
2022-09-18T11:45:34.762Z,61.04
2022-09-18T11:46:34.730Z,65.71
2022-09-18T11:47:34.679Z,63.90
2022-09-18T11:48:34.852Z,61.94
2022-09-18T11:49:34.639Z,62.13
2022-09-18T11:50:34.744Z,65.59
2022-09-18T11:51:34.614Z,71.40
2022-09-18T11:52:34.654Z,63.68
2022-09-18T11:53:34.587Z,63.95
2022-09-18T11:54:34.648Z,64.15
2022-09-18T11:55:34.699Z,67.20
2022-09-18T11:56:34.639Z,68.41
2022-09-18T11:57:35.556Z,65.99
2022-09-18T11:58:34.541Z,65.59
2022-09-18T11:59:34.580Z,65.19
2022-09-18T12:00:34.555Z,65.66
2022-09-18T12:01:34.502Z,70.19
2022-09-18T12:02:34.702Z,66.24
2022-09-18T12:03:34.602Z,62.87
2022-09-18T12:04:34.621Z,63.39
2022-09-18T12:05:34.800Z,62.71
2022-09-18T12:06:35.189Z,61.54
2022-09-18T12:07:35.743Z,59.99
2022-09-18T12:08:33.072Z,60.14
2022-09-18T12:09:33.095Z,60.68
2022-09-18T12:10:33.041Z,61.42
2022-09-18T12:11:33.169Z,58.29
2022-09-18T12:12:33.123Z,59.44
2022-09-18T12:13:33.112Z,60.91
2022-09-18T12:14:33.294Z,54.29
2022-09-18T12:15:33.298Z,54.09
2022-09-18T12:16:33.051Z,55.91
2022-09-18T12:17:33.008Z,56.24
2022-09-18T12:18:32.953Z,57.34
2022-09-18T12:19:32.953Z,57.34
2022-09-18T12:20:32.954Z,60.44
2022-09-18T12:21:32.928Z,57.79
2022-09-18T12:22:33.044Z,56.22
2022-09-18T12:23:33.510Z,61.19
2022-09-18T12:24:33.553Z,59.09
2022-09-18T12:25:32.875Z,57.14
2022-09-18T12:26:32.869Z,55.54
2022-09-18T12:27:32.965Z,56.24
2022-09-18T12:28:32.830Z,56.14
2022-09-18T12:29:32.833Z,55.54
2022-09-18T12:30:32.895Z,56.11
2022-09-18T12:31:33.047Z,55.32
2022-09-18T12:32:32.954Z,55.41
2022-09-18T12:33:34.347Z,56.61
2022-09-18T12:34:32.859Z,55.21
2022-09-18T12:35:32.758Z,55.24
2022-09-18T12:36:32.747Z,54.04
2022-09-18T12:37:32.776Z,53.94
2022-09-18T12:38:32.729Z,56.32
2022-09-18T12:39:33.486Z,56.90
2022-09-18T12:40:33.728Z,59.74
2022-09-18T12:41:34.087Z,59.86
2022-09-18T12:42:33.347Z,58.01
2022-09-18T12:43:33.454Z,62.23
2022-09-18T12:44:33.360Z,63.56
2022-09-18T12:45:33.365Z,65.70
2022-09-18T12:46:33.363Z,58.80
2022-09-18T12:47:33.378Z,60.71
2022-09-18T12:48:33.358Z,68.62
2022-09-18T12:49:33.819Z,61.69
2022-09-18T12:50:33.785Z,57.84
2022-09-18T12:51:33.243Z,60.02
2022-09-18T12:52:33.249Z,62.10